This is the latest recevied weather packets stored in our database for station/object AI9F. If no packets are shown the sender has not sent any weather packets the latest 10 day(s).
| Time | Temp. | Humidity | Pressure | Rain* | Wind** | Luminosity | Snow |
|---|---|---|---|---|---|---|---|
| 1777990938 | 13.89° C | 90% | 1009.4 hPa | 8.89 mm | - | 22 W/m² | - |
| 1777990636 | 14.44° C | 90% | 1009.6 hPa | 4.32 mm | - | 13 W/m² | - |
| 1777990333 | 15° C | 90% | 1009.5 hPa | 1.78 mm | - | 8 W/m² | - |
| 1777990028 | 15° C | 89% | 1009 hPa | 1.78 mm | - | 8 W/m² | - |
| 1777989726 | 15° C | 89% | 1008.7 hPa | 0 mm | - | 14 W/m² | - |
| 1777989422 | 15° C | 89% | 1008 hPa | 0 mm | - | 39 W/m² | - |
| 1777989119 | 15° C | 90% | 1008.2 hPa | 0 mm | - | 26 W/m² | - |
| 1777988814 | 15.56° C | 89% | 1008.4 hPa | 0 mm | - | 31 W/m² | - |
| 1777988512 | 15.56° C | 89% | 1008.2 hPa | 0 mm | - | 37 W/m² | - |
| 1777988209 | 15.56° C | 89% | 1008.2 hPa | 0 mm | - | 51 W/m² | - |
| 1777987905 | 15.56° C | 89% | 1008.2 hPa | 0 mm | - | 39 W/m² | - |
| 1777987601 | 15° C | 89% | 1007.9 hPa | 0 mm | - | 47 W/m² | - |
| 1777987299 | 15.56° C | 89% | 1008.1 hPa | 0 mm | - | 41 W/m² | - |
| 1777986995 | 15.56° C | 89% | 1007.9 hPa | 0 mm | - | 35 W/m² | - |
| 1777986693 | 15° C | 89% | 1007.9 hPa | 0 mm | - | 31 W/m² | - |
| 1777986391 | 15° C | 89% | 1007.7 hPa | 0 mm | - | 38 W/m² | - |
| 1777986090 | 15.56° C | 90% | 1007.8 hPa | 0 mm | - | 56 W/m² | - |
| 1777985785 | 15.56° C | 90% | 1007.8 hPa | 0 mm | - | 49 W/m² | - |
| 1777985483 | 15° C | 90% | 1007.9 hPa | 0 mm | - | 43 W/m² | - |
| 1777985179 | 15° C | 91% | 1008.1 hPa | 0 mm | - | 33 W/m² | - |
| 1777984876 | 15° C | 91% | 1008.2 hPa | 0 mm | - | 23 W/m² | - |
| 1777984572 | 15.56° C | 92% | 1008.1 hPa | 0 mm | - | 13 W/m² | - |
| 1777984268 | 15° C | 93% | 1008.6 hPa | 0 mm | - | 6 W/m² | - |
| 1777983965 | 15° C | 93% | 1008.6 hPa | 0 mm | - | 6 W/m² | - |
| 1777983662 | 15° C | 94% | 1008.4 hPa | 0 mm | - | 7 W/m² | - |
* Rain latest hour (hover to see other rain measurements)
** Current wind speed in m/s (hover to see current wind gust speed)